Time;durP1;ratioP1;P1;durP2;ratioP2;P2;SDS_P1;SDS_P2;PMS_P1;PMS_P2;Temp;Humidity;BMP_temperature;BMP_pressure;BME280_temperature;BME280_humidity;BME280_pressure;Samples;Min_cycle;Max_cycle;Signal;HPM_P1;HPM_P2
2022/05/14 00:00:38;;;;;;;8.57;7.30;;;;;22.10;100940.00;;;;2080669;28;20698;-55
2022/05/14 00:01:38;;;;;;;8.13;7.10;;;;;22.10;100939.00;;;;2080711;28;20241;-55
2022/05/14 00:02:38;;;;;;;7.60;6.90;;;;;22.10;100931.00;;;;2080645;28;20213;-55
2022/05/14 00:03:39;;;;;;;8.50;7.47;;;;;22.10;100938.00;;;;2079895;28;20201;-55
2022/05/14 00:04:40;;;;;;;10.02;7.85;;;;;22.10;100938.00;;;;2081195;28;20728;-55
2022/05/14 00:05:41;;;;;;;7.40;6.70;;;;;22.10;100941.00;;;;2080590;28;20214;-55
2022/05/14 00:06:42;;;;;;;9.57;7.30;;;;;22.10;100940.00;;;;2081538;28;20881;-56
2022/05/14 00:07:42;;;;;;;7.87;6.63;;;;;22.10;100936.00;;;;2080108;28;20206;-55
2022/05/14 00:08:42;;;;;;;8.47;6.57;;;;;22.10;100938.00;;;;2080253;28;20205;-55
2022/05/14 00:09:43;;;;;;;7.83;7.03;;;;;22.10;100942.00;;;;2081078;28;20236;-56
2022/05/14 00:13:22;;;;;;;7.82;6.32;;;;;22.10;100945.00;;;;2081394;28;20213;-56
2022/05/14 00:14:22;;;;;;;7.20;6.50;;;;;22.10;100943.00;;;;2080737;28;20209;-55
2022/05/14 00:15:23;;;;;;;10.33;6.70;;;;;22.10;100942.00;;;;2070952;28;20579;-55
2022/05/14 00:16:23;;;;;;;7.43;6.57;;;;;22.10;100939.00;;;;2080215;28;20205;-55
2022/05/14 00:17:24;;;;;;;8.03;7.10;;;;;22.10;100942.00;;;;2080129;28;20198;-56
2022/05/14 00:18:24;;;;;;;6.90;6.20;;;;;22.10;100940.00;;;;2081235;28;20281;-56
2022/05/14 00:19:25;;;;;;;6.97;5.90;;;;;22.10;100939.00;;;;2081100;28;20248;-55
2022/05/14 00:20:25;;;;;;;8.20;7.10;;;;;22.10;100942.00;;;;2081004;28;20221;-55
2022/05/14 00:21:26;;;;;;;6.93;5.93;;;;;22.10;100942.00;;;;2080464;28;20217;-55
2022/05/14 00:22:26;;;;;;;6.93;6.27;;;;;22.10;100936.00;;;;2080362;28;20267;-55
2022/05/14 00:23:27;;;;;;;8.10;5.87;;;;;22.10;100935.00;;;;2080175;28;20884;-55
2022/05/14 00:24:27;;;;;;;6.87;6.20;;;;;22.10;100942.00;;;;2080374;28;20261;-56
2022/05/14 00:25:28;;;;;;;7.00;6.10;;;;;22.10;100939.00;;;;2079461;28;20466;-55
2022/05/14 00:26:28;;;;;;;7.03;6.13;;;;;22.10;100942.00;;;;2080918;28;20328;-55
2022/05/14 00:27:28;;;;;;;7.87;6.50;;;;;22.10;100940.00;;;;2080893;28;20217;-55
2022/05/14 00:28:29;;;;;;;7.03;6.33;;;;;22.10;100935.00;;;;2081353;28;20241;-55
2022/05/14 00:29:30;;;;;;;6.97;6.27;;;;;22.10;100933.00;;;;2080916;28;20275;-56
2022/05/14 00:30:31;;;;;;;6.35;5.63;;;;;22.10;100935.00;;;;2080067;28;20305;-56
2022/05/14 00:31:31;;;;;;;6.70;5.73;;;;;22.00;100929.00;;;;2080104;28;20229;-55
2022/05/14 00:32:32;;;;;;;6.90;5.93;;;;;22.10;100938.00;;;;2080245;28;20224;-55
2022/05/14 00:33:32;;;;;;;7.40;6.13;;;;;22.00;100928.00;;;;2080797;28;20228;-55
2022/05/14 00:34:32;;;;;;;6.67;6.00;;;;;22.10;100925.00;;;;2080844;28;20237;-55
2022/05/14 00:35:33;;;;;;;7.03;6.33;;;;;22.00;100934.00;;;;2079850;28;20213;-55
2022/05/14 00:36:33;;;;;;;6.83;5.87;;;;;22.00;100943.00;;;;2080221;28;20214;-55
2022/05/14 00:37:34;;;;;;;7.10;6.40;;;;;22.00;100939.00;;;;2080037;28;20829;-55
2022/05/14 00:38:34;;;;;;;7.72;6.57;;;;;22.00;100938.00;;;;2080030;28;20218;-55
2022/05/14 00:39:35;;;;;;;6.07;5.33;;;;;22.00;100939.00;;;;2080636;28;20304;-55
2022/05/14 00:40:36;;;;;;;6.77;6.13;;;;;22.10;100943.00;;;;2080668;28;20231;-55
2022/05/14 00:41:39;;;;;;;6.70;6.00;;;;;22.00;100936.00;;;;2079818;28;20267;-55
2022/05/14 00:42:39;;;;;;;5.97;5.38;;;;;22.10;100934.00;;;;2080068;28;20213;-56
2022/05/14 00:43:54;;;;;;;6.60;5.50;;;;;22.10;100934.00;;;;2081090;28;20237;-55
2022/05/14 00:44:54;;;;;;;5.97;5.38;;;;;22.10;100937.00;;;;2073829;28;20243;-56
2022/05/14 00:46:04;;;;;;;7.80;5.90;;;;;22.10;100933.00;;;;2080067;28;20220;-55
2022/05/14 00:47:08;;;;;;;5.88;5.28;;;;;21.90;100939.00;;;;2080344;28;20220;-56
2022/05/14 00:48:10;;;;;;;6.97;5.22;;;;;22.10;100933.00;;;;2079622;28;20307;-55
2022/05/14 00:49:11;;;;;;;6.38;5.20;;;;;22.10;100932.00;;;;2071989;28;20309;-55
2022/05/14 00:50:23;;;;;;;5.67;5.13;;;;;22.10;100935.00;;;;2079661;28;20226;-55
2022/05/14 00:51:26;;;;;;;7.15;5.47;;;;;22.10;100937.00;;;;2080255;28;20237;-56
2022/05/14 00:52:26;;;;;;;5.78;5.18;;;;;22.10;100937.00;;;;2078396;28;20225;-55
2022/05/14 00:53:35;;;;;;;6.90;5.63;;;;;22.00;100937.00;;;;2071365;28;20205;-55
2022/05/14 00:54:42;;;;;;;8.02;6.22;;;;;22.00;100940.00;;;;2071592;28;20218;-56
2022/05/14 00:55:43;;;;;;;6.60;5.65;;;;;22.00;100935.00;;;;2063557;28;20210;-55
2022/05/14 00:56:47;;;;;;;6.95;4.80;;;;;22.10;100938.00;;;;2069627;28;20250;-57
2022/05/14 00:57:47;;;;;;;8.15;5.22;;;;;22.10;100921.00;;;;2057293;28;20219;-55
2022/05/14 00:58:52;;;;;;;6.50;4.63;;;;;22.10;100933.00;;;;2054050;28;20243;-56
2022/05/14 00:59:52;;;;;;;8.45;4.43;;;;;22.10;100927.00;;;;2062606;28;20696;-54
2022/05/14 01:00:52;;;;;;;5.90;4.83;;;;;22.10;100929.00;;;;2058100;28;20218;-56
2022/05/14 01:01:53;;;;;;;19.40;5.60;;;;;22.20;100938.00;;;;2069942;28;20613;-56
2022/05/14 01:02:53;;;;;;;9.60;5.73;;;;;22.10;100933.00;;;;2068201;28;21110;-55
2022/05/14 01:03:54;;;;;;;8.47;5.37;;;;;22.00;100932.00;;;;2069904;28;20449;-56
2022/05/14 01:04:54;;;;;;;7.00;5.23;;;;;22.00;100929.00;;;;2077652;28;20217;-56
2022/05/14 01:05:54;;;;;;;5.83;4.67;;;;;22.00;100926.00;;;;2076783;28;20214;-55
2022/05/14 01:07:17;;;;;;;8.40;4.70;;;;;22.00;100928.00;;;;2076249;28;20219;-56
2022/05/14 01:08:18;;;;;;;8.57;5.03;;;;;22.00;100930.00;;;;2074812;28;21258;-56
2022/05/14 01:09:18;;;;;;;5.23;4.07;;;;;22.00;100921.00;;;;2086329;28;20204;-55
2022/05/14 01:10:20;;;;;;;6.63;4.43;;;;;22.00;100923.00;;;;2085481;28;20273;-56
2022/05/14 01:11:21;;;;;;;6.88;4.30;;;;;22.00;100924.00;;;;2077834;28;20304;-57
2022/05/14 01:12:22;;;;;;;6.07;4.10;;;;;22.00;100918.00;;;;2078167;28;21029;-56
2022/05/14 01:13:22;;;;;;;7.30;4.00;;;;;22.00;100930.00;;;;2077962;28;20218;-55
2022/05/14 01:14:23;;;;;;;6.03;4.17;;;;;22.00;100927.00;;;;2086379;28;20511;-55
2022/05/14 01:15:24;;;;;;;5.70;3.87;;;;;22.00;100930.00;;;;2086316;28;20635;-55
2022/05/14 01:16:25;;;;;;;5.70;4.15;;;;;22.00;100928.00;;;;2087020;28;20232;-56
2022/05/14 01:17:25;;;;;;;6.63;3.93;;;;;22.00;100931.00;;;;2086493;28;20205;-55
2022/05/14 01:18:26;;;;;;;9.20;4.00;;;;;22.00;100930.00;;;;2079005;28;20213;-56
2022/05/14 01:19:27;;;;;;;5.60;3.88;;;;;22.00;100923.00;;;;2078853;28;20204;-55
2022/05/14 01:20:27;;;;;;;6.70;3.63;;;;;22.00;100926.00;;;;2078578;28;20218;-55
2022/05/14 01:21:38;;;;;;;7.60;4.90;;;;;22.00;100911.00;;;;2069933;28;20221;-55
2022/05/14 01:22:47;;;;;;;5.50;4.68;;;;;22.00;100925.00;;;;2077346;28;20702;-55
2022/05/14 01:26:52;;;;;;;4.45;3.60;;;;;22.00;100921.00;;;;2068072;28;20213;-55
2022/05/14 01:27:52;;;;;;;5.00;4.10;;;;;22.00;100924.00;;;;2079992;28;20257;-55
2022/05/14 01:28:53;;;;;;;6.30;4.33;;;;;22.00;100930.00;;;;2074116;28;20214;-56
2022/05/14 01:29:53;;;;;;;4.63;3.80;;;;;22.00;100925.00;;;;2069766;28;20671;-56
2022/05/14 01:30:58;;;;;;;4.90;3.90;;;;;22.00;100922.00;;;;2069797;28;20784;-55
2022/05/14 01:31:58;;;;;;;7.85;3.92;;;;;22.00;100930.00;;;;2074733;28;20213;-55
2022/05/14 01:33:05;;;;;;;4.90;3.73;;;;;22.00;100922.00;;;;2077942;28;20256;-55
2022/05/14 01:34:07;;;;;;;4.38;3.75;;;;;22.00;100923.00;;;;2077660;28;20268;-55
2022/05/14 01:35:08;;;;;;;6.03;3.60;;;;;22.00;100924.00;;;;2078753;28;20217;-56
2022/05/14 01:36:09;;;;;;;5.63;3.63;;;;;22.00;100923.00;;;;2078029;28;20747;-55
2022/05/14 01:37:10;;;;;;;4.00;3.27;;;;;22.00;100927.00;;;;2078287;28;20245;-55
2022/05/14 01:38:10;;;;;;;3.55;3.25;;;;;22.00;100928.00;;;;2078152;28;20447;-56
2022/05/14 01:39:11;;;;;;;6.43;3.77;;;;;21.90;100926.00;;;;2077521;28;20678;-55
2022/05/14 01:40:12;;;;;;;5.53;3.67;;;;;22.00;100923.00;;;;2077612;28;20343;-56
2022/05/14 01:41:12;;;;;;;4.10;3.43;;;;;21.90;100928.00;;;;2078212;28;20224;-56
2022/05/14 01:42:12;;;;;;;4.20;3.70;;;;;21.90;100929.00;;;;2078667;28;20300;-55
2022/05/14 01:43:13;;;;;;;5.23;3.63;;;;;21.90;100927.00;;;;2078014;28;20280;-55
2022/05/14 01:44:13;;;;;;;4.60;3.73;;;;;21.90;100932.00;;;;2077246;28;20217;-56
2022/05/14 01:45:14;;;;;;;6.43;3.50;;;;;21.90;100927.00;;;;2078412;28;20213;-55
2022/05/14 01:46:14;;;;;;;4.20;3.80;;;;;21.90;100933.00;;;;2077778;28;20210;-56
2022/05/14 01:47:14;;;;;;;5.03;3.40;;;;;21.90;100933.00;;;;2073356;28;20234;-56
2022/05/14 01:48:14;;;;;;;4.00;3.40;;;;;21.90;100936.00;;;;2063078;28;20222;-56
2022/05/14 01:49:15;;;;;;;3.90;3.50;;;;;21.90;100944.00;;;;2077895;28;20786;-56
2022/05/14 01:50:15;;;;;;;5.90;3.87;;;;;22.00;100938.00;;;;2078239;28;20597;-55
2022/05/14 01:51:16;;;;;;;3.20;2.80;;;;;22.00;100932.00;;;;2077906;28;20209;-55
2022/05/14 01:52:16;;;;;;;3.77;3.33;;;;;22.00;100929.00;;;;2077954;28;20217;-55
2022/05/14 01:53:17;;;;;;;6.13;3.60;;;;;21.90;100935.00;;;;2078260;28;20275;-55
2022/05/14 01:54:17;;;;;;;7.70;3.70;;;;;21.90;100935.00;;;;2077108;28;20301;-55
2022/05/14 01:55:17;;;;;;;6.00;3.40;;;;;21.90;100928.00;;;;2076983;28;20234;-55
2022/05/14 01:56:18;;;;;;;4.57;3.30;;;;;21.90;100925.00;;;;2076280;28;20216;-55
2022/05/14 01:57:18;;;;;;;3.70;3.10;;;;;21.90;100928.00;;;;2077295;28;20233;-55
2022/05/14 01:58:36;;;;;;;3.33;3.03;;;;;21.90;100929.00;;;;2075867;28;20217;-55
2022/05/14 01:59:37;;;;;;;4.00;3.50;;;;;21.90;100932.00;;;;2079679;28;20659;-55
2022/05/14 02:00:37;;;;;;;4.23;3.00;;;;;21.90;100932.00;;;;2077995;28;20233;-55
2022/05/14 02:01:37;;;;;;;5.73;3.70;;;;;21.90;100929.00;;;;2069879;28;20217;-55
2022/05/14 02:02:38;;;;;;;4.10;3.03;;;;;21.90;100931.00;;;;2069650;28;20213;-55
2022/05/14 02:03:38;;;;;;;4.30;3.40;;;;;21.90;100925.00;;;;2070565;28;20218;-55
2022/05/14 02:04:39;;;;;;;5.50;3.20;;;;;21.90;100918.00;;;;2078253;28;20221;-55
2022/05/14 02:05:39;;;;;;;5.40;3.17;;;;;21.90;100927.00;;;;2069478;28;20288;-55
2022/05/14 02:06:40;;;;;;;4.90;3.43;;;;;21.90;100925.00;;;;2070119;28;20909;-55
2022/05/14 02:07:41;;;;;;;4.37;3.47;;;;;21.90;100929.00;;;;2070272;28;20206;-55
2022/05/14 02:08:41;;;;;;;3.90;2.90;;;;;21.90;100920.00;;;;2070188;28;20213;-55
2022/05/14 02:09:41;;;;;;;3.50;3.20;;;;;21.90;100919.00;;;;2068689;28;20214;-55
2022/05/14 02:10:42;;;;;;;4.60;3.20;;;;;21.90;100918.00;;;;2069654;28;20222;-56
2022/05/14 02:11:43;;;;;;;4.63;3.10;;;;;21.90;100923.00;;;;2072239;28;20284;-55
2022/05/14 02:12:43;;;;;;;5.50;2.93;;;;;21.90;100923.00;;;;2078489;28;20217;-55
2022/05/14 02:13:44;;;;;;;3.43;3.13;;;;;21.90;100922.00;;;;2078360;28;20220;-55
2022/05/14 02:14:45;;;;;;;3.17;2.63;;;;;21.90;100932.00;;;;2077465;28;20217;-55
2022/05/14 02:15:46;;;;;;;3.20;2.90;;;;;21.90;100926.00;;;;2069043;28;20214;-55
2022/05/14 02:16:46;;;;;;;4.67;2.80;;;;;21.90;100926.00;;;;2078199;28;20730;-55
2022/05/14 02:17:46;;;;;;;5.90;3.10;;;;;21.90;100925.00;;;;2079902;28;20693;-55
2022/05/14 02:18:47;;;;;;;4.80;3.00;;;;;21.80;100926.00;;;;2079718;28;20218;-55
2022/05/14 02:19:49;;;;;;;4.00;3.20;;;;;21.90;100922.00;;;;2079867;28;20221;-55
2022/05/14 02:20:50;;;;;;;3.38;2.63;;;;;21.80;100917.00;;;;2073210;28;20226;-55
2022/05/14 02:21:50;;;;;;;5.90;3.00;;;;;21.80;100926.00;;;;2071748;28;20221;-55
2022/05/14 02:22:51;;;;;;;3.10;2.80;;;;;21.90;100927.00;;;;2071754;28;20221;-55
2022/05/14 02:23:52;;;;;;;4.97;2.85;;;;;21.80;100926.00;;;;2071703;28;20218;-55
2022/05/14 02:24:54;;;;;;;3.53;2.80;;;;;21.80;100924.00;;;;2077789;28;20263;-55
2022/05/14 02:25:54;;;;;;;3.50;2.70;;;;;21.90;100920.00;;;;2078224;28;20217;-55
2022/05/14 02:26:55;;;;;;;4.17;2.80;;;;;21.80;100922.00;;;;2078776;28;20213;-55
2022/05/14 02:27:55;;;;;;;3.10;2.70;;;;;21.80;100923.00;;;;2077857;28;20212;-55
2022/05/14 02:28:55;;;;;;;3.80;2.90;;;;;21.80;100922.00;;;;2078113;28;20205;-55
2022/05/14 02:29:56;;;;;;;3.30;2.90;;;;;21.90;100928.00;;;;2079616;28;20248;-55
2022/05/14 02:30:56;;;;;;;3.10;2.80;;;;;21.80;100918.00;;;;2071748;28;20233;-55
2022/05/14 02:31:56;;;;;;;3.30;3.00;;;;;21.80;100926.00;;;;2071721;28;20214;-55
2022/05/14 02:32:57;;;;;;;3.03;2.70;;;;;21.80;100919.00;;;;2074582;28;20213;-55
2022/05/14 02:33:57;;;;;;;3.63;2.80;;;;;21.80;100921.00;;;;2080021;28;20209;-55
2022/05/14 02:34:59;;;;;;;4.93;2.70;;;;;21.80;100927.00;;;;2071456;28;20289;-55
2022/05/14 02:35:59;;;;;;;4.43;3.05;;;;;21.80;100925.00;;;;2069920;28;20222;-58
2022/05/14 02:36:59;;;;;;;3.67;3.03;;;;;21.80;100929.00;;;;2070994;28;20214;-56
2022/05/14 02:38:00;;;;;;;5.07;3.30;;;;;21.80;100932.00;;;;2070975;28;20234;-56
2022/05/14 02:39:00;;;;;;;3.40;3.10;;;;;21.80;100934.00;;;;2079428;28;20232;-55
2022/05/14 02:40:01;;;;;;;4.67;2.60;;;;;21.80;100919.00;;;;2079663;28;20260;-55
2022/05/14 02:41:01;;;;;;;3.10;2.80;;;;;21.80;100937.00;;;;2079756;28;20217;-56
2022/05/14 02:42:01;;;;;;;4.40;3.13;;;;;21.80;100934.00;;;;2079523;28;20856;-56
2022/05/14 02:43:02;;;;;;;6.50;2.83;;;;;21.80;100937.00;;;;2063257;28;20753;-55
2022/05/14 02:44:02;;;;;;;3.60;2.80;;;;;21.80;100934.00;;;;2070733;28;20325;-55
2022/05/14 02:45:03;;;;;;;3.50;2.70;;;;;21.80;100926.00;;;;2071036;28;20284;-55
2022/05/14 02:46:04;;;;;;;5.10;3.20;;;;;21.80;100936.00;;;;2078201;28;20214;-55
2022/05/14 02:47:04;;;;;;;2.93;2.60;;;;;21.80;100929.00;;;;2079637;28;20233;-55
2022/05/14 02:48:04;;;;;;;3.10;2.70;;;;;21.80;100932.00;;;;2079413;28;21126;-55
2022/05/14 02:49:05;;;;;;;4.20;2.57;;;;;21.80;100932.00;;;;2079427;28;20292;-55
2022/05/14 02:50:06;;;;;;;4.97;2.73;;;;;21.80;100938.00;;;;2079574;28;20360;-55
2022/05/14 02:51:06;;;;;;;2.55;2.35;;;;;21.80;100947.00;;;;2079161;28;20267;-55
2022/05/14 02:52:07;;;;;;;2.97;2.60;;;;;21.80;100937.00;;;;2071816;28;20214;-55
2022/05/14 02:53:08;;;;;;;3.50;2.80;;;;;21.80;100936.00;;;;2064410;28;20282;-55
2022/05/14 02:54:08;;;;;;;4.77;3.47;;;;;21.80;100939.00;;;;2074032;28;20214;-55
2022/05/14 02:55:09;;;;;;;4.33;2.90;;;;;21.80;100937.00;;;;2078761;28;20562;-55
2022/05/14 02:56:09;;;;;;;5.30;2.80;;;;;21.80;100936.00;;;;2070200;28;20305;-55
2022/05/14 02:57:10;;;;;;;3.80;3.03;;;;;21.80;100936.00;;;;2070765;28;20244;-55
2022/05/14 02:58:10;;;;;;;3.70;2.60;;;;;21.80;100939.00;;;;2078914;28;20209;-55
2022/05/14 02:59:10;;;;;;;2.77;2.23;;;;;21.80;100940.00;;;;2079622;28;20272;-55
2022/05/14 03:00:13;;;;;;;4.63;3.03;;;;;21.80;100937.00;;;;2079654;28;20223;-55
2022/05/14 03:01:13;;;;;;;3.65;2.70;;;;;21.80;100935.00;;;;2070809;28;20264;-55
2022/05/14 03:02:14;;;;;;;3.83;2.70;;;;;21.80;100937.00;;;;2070591;28;20214;-55
2022/05/14 03:03:15;;;;;;;3.72;2.78;;;;;21.80;100936.00;;;;2079179;28;20676;-55
2022/05/14 03:04:23;;;;;;;3.13;2.13;;;;;21.80;100935.00;;;;2079650;28;20271;-55
2022/05/14 03:05:23;;;;;;;4.22;2.53;;;;;21.80;100936.00;;;;2078108;28;20886;-56
2022/05/14 03:06:24;;;;;;;4.43;2.63;;;;;21.80;100929.00;;;;2078732;28;20221;-55
2022/05/14 03:07:24;;;;;;;3.00;2.53;;;;;21.80;100934.00;;;;2078616;28;20217;-55
2022/05/14 03:08:24;;;;;;;3.30;2.73;;;;;21.80;100934.00;;;;2078541;28;20226;-55
2022/05/14 03:09:25;;;;;;;3.23;2.60;;;;;21.80;100937.00;;;;2078883;28;20218;-55
2022/05/14 03:10:25;;;;;;;4.07;2.57;;;;;21.70;100936.00;;;;2078754;28;20217;-56
2022/05/14 03:11:26;;;;;;;2.90;2.27;;;;;21.70;100941.00;;;;2079488;28;20210;-55
2022/05/14 03:12:26;;;;;;;3.33;2.60;;;;;21.70;100938.00;;;;2078624;28;20225;-55
2022/05/14 03:13:26;;;;;;;3.70;2.90;;;;;21.70;100938.00;;;;2072690;28;20217;-55
2022/05/14 03:14:26;;;;;;;2.70;2.50;;;;;21.70;100934.00;;;;2070366;28;20225;-56
2022/05/14 03:15:27;;;;;;;3.17;2.47;;;;;21.70;100932.00;;;;2070021;28;20211;-55
2022/05/14 03:16:28;;;;;;;4.83;2.57;;;;;21.70;100924.00;;;;2070090;28;20229;-56
2022/05/14 03:17:29;;;;;;;2.88;2.40;;;;;21.70;100932.00;;;;2070919;28;20294;-56
2022/05/14 03:18:29;;;;;;;4.80;2.33;;;;;21.70;100925.00;;;;2071218;28;20237;-56
2022/05/14 03:19:30;;;;;;;3.10;2.80;;;;;21.70;100932.00;;;;2071080;28;20636;-55
2022/05/14 03:20:30;;;;;;;3.50;2.40;;;;;21.70;100933.00;;;;2070820;28;20940;-55
2022/05/14 03:21:30;;;;;;;3.10;2.50;;;;;21.70;100930.00;;;;2070488;28;20214;-55
2022/05/14 03:22:31;;;;;;;3.70;2.30;;;;;21.80;100936.00;;;;2070922;28;20242;-55
2022/05/14 03:23:31;;;;;;;3.43;2.77;;;;;21.80;100934.00;;;;2070830;28;20222;-55
2022/05/14 03:24:31;;;;;;;3.73;2.70;;;;;21.80;100933.00;;;;2071068;28;20214;-56
2022/05/14 03:25:32;;;;;;;3.37;2.33;;;;;21.70;100931.00;;;;2070479;28;20233;-55
2022/05/14 03:26:32;;;;;;;4.60;2.90;;;;;21.70;100926.00;;;;2071236;28;20300;-55
2022/05/14 03:27:32;;;;;;;2.70;2.13;;;;;21.70;100928.00;;;;2070818;28;20222;-56
2022/05/14 03:28:33;;;;;;;3.40;2.50;;;;;21.70;100923.00;;;;2071159;28;20214;-55
2022/05/14 03:29:34;;;;;;;2.80;2.33;;;;;21.70;100928.00;;;;2070962;28;20233;-56
2022/05/14 03:30:35;;;;;;;2.90;2.60;;;;;21.70;100932.00;;;;2070031;28;20214;-55
2022/05/14 03:31:35;;;;;;;3.30;2.60;;;;;21.70;100928.00;;;;2071276;28;20514;-55
2022/05/14 03:32:36;;;;;;;2.93;2.63;;;;;21.70;100931.00;;;;2070862;28;20461;-56
2022/05/14 03:33:36;;;;;;;3.43;2.70;;;;;21.70;100932.00;;;;2070691;28;20292;-56
2022/05/14 03:34:36;;;;;;;4.70;2.33;;;;;21.70;100934.00;;;;2070568;28;20708;-55
2022/05/14 03:35:37;;;;;;;3.80;2.50;;;;;21.70;100925.00;;;;2069631;28;20245;-56
2022/05/14 03:36:39;;;;;;;2.40;2.20;;;;;21.70;100929.00;;;;2070598;28;20272;-56
2022/05/14 03:37:39;;;;;;;3.65;2.50;;;;;21.70;100933.00;;;;2070109;28;20222;-56
2022/05/14 03:38:40;;;;;;;3.20;2.50;;;;;21.70;100931.00;;;;2068645;28;20320;-56
2022/05/14 03:39:40;;;;;;;3.50;2.40;;;;;21.70;100931.00;;;;2071322;28;20244;-55
2022/05/14 03:40:40;;;;;;;4.33;2.77;;;;;21.70;100926.00;;;;2070936;28;20218;-56
2022/05/14 03:41:40;;;;;;;2.90;2.20;;;;;21.70;100920.00;;;;2071403;28;20280;-57
2022/05/14 03:42:42;;;;;;;4.40;2.90;;;;;21.70;100930.00;;;;2070940;28;20218;-55
2022/05/14 03:43:44;;;;;;;4.07;2.70;;;;;21.70;100923.00;;;;2071039;28;20213;-55
2022/05/14 03:44:44;;;;;;;2.80;2.25;;;;;21.70;100929.00;;;;2070755;28;20222;-56
2022/05/14 03:45:44;;;;;;;3.57;2.60;;;;;21.70;100928.00;;;;2070347;28;20257;-56
2022/05/14 03:46:45;;;;;;;4.30;2.47;;;;;21.70;100927.00;;;;2071325;28;20234;-55
2022/05/14 03:47:45;;;;;;;5.53;3.07;;;;;21.70;100927.00;;;;2069564;28;20222;-55
2022/05/14 03:48:46;;;;;;;2.83;2.20;;;;;21.70;100925.00;;;;2071018;28;20217;-56
2022/05/14 03:49:46;;;;;;;3.87;2.40;;;;;21.70;100928.00;;;;2070709;28;20456;-55
2022/05/14 03:50:46;;;;;;;3.93;2.13;;;;;21.70;100931.00;;;;2071093;28;20237;-56
2022/05/14 03:51:47;;;;;;;3.33;2.40;;;;;21.70;100925.00;;;;2071012;28;20225;-55
2022/05/14 03:52:47;;;;;;;3.40;2.70;;;;;21.70;100928.00;;;;2070007;28;20222;-55
2022/05/14 03:53:47;;;;;;;4.13;2.53;;;;;21.70;100926.00;;;;2070197;28;20214;-56
2022/05/14 03:54:48;;;;;;;3.17;2.37;;;;;21.70;100949.00;;;;2071056;28;20225;-56
2022/05/14 03:55:48;;;;;;;4.83;2.00;;;;;21.70;100933.00;;;;2070162;28;20647;-56
2022/05/14 03:56:48;;;;;;;2.70;2.07;;;;;21.70;100935.00;;;;2070886;28;20769;-55
2022/05/14 03:57:49;;;;;;;5.00;2.53;;;;;21.70;100927.00;;;;2071146;28;20222;-56
2022/05/14 03:58:49;;;;;;;3.30;2.40;;;;;21.70;100931.00;;;;2071070;28;20252;-55
2022/05/14 03:59:49;;;;;;;3.67;2.30;;;;;21.70;100930.00;;;;2070958;28;20210;-55
2022/05/14 04:00:50;;;;;;;2.73;2.30;;;;;21.70;100935.00;;;;2070729;28;20277;-56
2022/05/14 04:01:50;;;;;;;4.00;2.37;;;;;21.70;100931.00;;;;2070787;28;20245;-55
2022/05/14 04:02:50;;;;;;;3.00;2.37;;;;;21.70;100936.00;;;;2070951;28;20214;-56
2022/05/14 04:03:51;;;;;;;3.23;2.20;;;;;21.70;100931.00;;;;2069292;28;20229;-55
2022/05/14 04:04:51;;;;;;;3.07;2.37;;;;;21.70;100936.00;;;;2070202;28;20722;-56
2022/05/14 04:05:51;;;;;;;2.83;2.50;;;;;21.70;100935.00;;;;2069509;28;20237;-55
2022/05/14 04:06:53;;;;;;;3.70;2.57;;;;;21.70;100941.00;;;;2070187;28;20214;-55
2022/05/14 04:07:53;;;;;;;3.42;2.85;;;;;21.70;100938.00;;;;2070429;28;20214;-56
2022/05/14 04:08:54;;;;;;;2.50;2.00;;;;;21.70;100942.00;;;;2070994;28;20202;-55
2022/05/14 04:09:54;;;;;;;3.50;2.20;;;;;21.70;100941.00;;;;2070859;28;20225;-55
2022/05/14 04:10:54;;;;;;;2.30;2.10;;;;;21.70;100939.00;;;;2070757;28;20245;-56
2022/05/14 04:11:55;;;;;;;4.43;2.60;;;;;21.70;100935.00;;;;2071031;28;20215;-55
2022/05/14 04:12:55;;;;;;;3.43;1.97;;;;;21.70;100935.00;;;;2073950;28;20271;-55
2022/05/14 04:13:57;;;;;;;3.47;2.37;;;;;21.70;100938.00;;;;2078500;28;20221;-55
2022/05/14 04:14:57;;;;;;;2.35;2.15;;;;;21.70;100936.00;;;;2079151;28;20210;-55
2022/05/14 04:15:57;;;;;;;2.27;2.07;;;;;21.70;100940.00;;;;2078258;28;20639;-55
2022/05/14 04:16:58;;;;;;;2.23;1.90;;;;;21.70;100938.00;;;;2079062;28;20646;-55
2022/05/14 04:17:59;;;;;;;4.18;2.40;;;;;21.70;100936.00;;;;2079031;28;20237;-55
2022/05/14 04:18:59;;;;;;;4.53;2.60;;;;;21.70;100944.00;;;;2079044;28;20209;-56
2022/05/14 04:19:59;;;;;;;2.40;2.13;;;;;21.60;100944.00;;;;2078956;28;20617;-56
2022/05/14 04:21:00;;;;;;;3.63;2.73;;;;;21.70;100948.00;;;;2079106;28;20290;-56
2022/05/14 04:22:00;;;;;;;3.20;2.00;;;;;21.70;100948.00;;;;2078049;28;20241;-55
2022/05/14 04:23:02;;;;;;;2.90;2.10;;;;;21.70;100946.00;;;;2070352;28;20214;-56
2022/05/14 04:24:02;;;;;;;2.72;2.15;;;;;21.60;100954.00;;;;2070000;28;20214;-55
2022/05/14 04:25:03;;;;;;;2.60;2.40;;;;;21.70;100952.00;;;;2070314;28;20214;-55
2022/05/14 04:26:04;;;;;;;4.23;2.40;;;;;21.70;100952.00;;;;2069497;28;20230;-55
2022/05/14 04:27:04;;;;;;;3.20;2.67;;;;;21.60;100953.00;;;;2069864;28;21307;-55
2022/05/14 04:28:05;;;;;;;3.70;2.30;;;;;21.70;100953.00;;;;2070386;28;20746;-56
2022/05/14 04:29:05;;;;;;;4.17;2.70;;;;;21.70;100962.00;;;;2070343;28;20222;-55
2022/05/14 04:30:06;;;;;;;3.50;2.10;;;;;21.70;100952.00;;;;2070685;28;20588;-55
2022/05/14 04:31:06;;;;;;;3.40;2.63;;;;;21.70;100960.00;;;;2070935;28;22184;-55
2022/05/14 04:32:07;;;;;;;4.07;2.13;;;;;21.60;100960.00;;;;2070967;28;20452;-55
2022/05/14 04:33:08;;;;;;;3.70;2.20;;;;;21.70;100957.00;;;;2070820;28;20242;-55
2022/05/14 04:34:08;;;;;;;3.00;1.90;;;;;21.60;100959.00;;;;2071118;28;20453;-56
2022/05/14 04:35:09;;;;;;;2.57;2.07;;;;;21.60;100962.00;;;;2070904;28;20229;-55
2022/05/14 04:36:10;;;;;;;2.50;1.80;;;;;21.70;100957.00;;;;2069827;28;20233;-56
2022/05/14 04:37:10;;;;;;;4.63;2.37;;;;;21.60;100960.00;;;;2070228;28;20222;-55
2022/05/14 04:38:10;;;;;;;2.53;2.13;;;;;21.60;100951.00;;;;2070715;28;20269;-56
2022/05/14 04:39:11;;;;;;;4.37;2.40;;;;;21.70;100956.00;;;;2070926;28;20210;-55
2022/05/14 04:40:12;;;;;;;3.17;2.03;;;;;21.70;100950.00;;;;2070697;28;20306;-55
2022/05/14 04:41:12;;;;;;;3.65;2.25;;;;;21.60;100915.00;;;;2070123;28;20233;-55
2022/05/14 04:42:12;;;;;;;2.70;1.97;;;;;21.70;100953.00;;;;2070310;28;20308;-55
2022/05/14 04:43:13;;;;;;;4.20;2.33;;;;;21.70;100953.00;;;;2070279;28;20210;-55
2022/05/14 04:44:13;;;;;;;3.57;2.10;;;;;21.70;100956.00;;;;2070938;28;20233;-56
2022/05/14 04:45:14;;;;;;;2.80;2.03;;;;;21.70;100953.00;;;;2070866;28;20597;-55
2022/05/14 04:46:14;;;;;;;3.07;2.20;;;;;21.70;100963.00;;;;2070208;28;20214;-56
2022/05/14 04:47:16;;;;;;;3.33;2.20;;;;;21.70;100964.00;;;;2070204;28;20218;-55
2022/05/14 04:48:16;;;;;;;2.50;1.77;;;;;21.70;100964.00;;;;2069493;28;20218;-55
2022/05/14 04:49:16;;;;;;;3.20;2.10;;;;;21.70;100966.00;;;;2070119;28;20296;-55
2022/05/14 04:50:17;;;;;;;3.93;2.13;;;;;21.70;100969.00;;;;2070526;28;20284;-55
2022/05/14 04:51:17;;;;;;;2.43;2.00;;;;;21.70;100975.00;;;;2070916;28;20261;-55
2022/05/14 04:52:17;;;;;;;4.30;2.10;;;;;21.70;100968.00;;;;2070297;28;20265;-56
2022/05/14 04:53:18;;;;;;;4.03;2.20;;;;;21.70;100968.00;;;;2069970;28;20686;-55
2022/05/14 04:54:18;;;;;;;3.30;2.00;;;;;21.70;100983.00;;;;2070750;28;20709;-55
2022/05/14 04:55:18;;;;;;;2.83;2.07;;;;;21.70;100967.00;;;;2070443;28;20308;-55
2022/05/14 04:56:19;;;;;;;2.70;1.77;;;;;21.70;100970.00;;;;2070751;28;20206;-55
2022/05/14 04:57:19;;;;;;;3.50;1.90;;;;;21.70;100970.00;;;;2070394;28;20221;-55
2022/05/14 04:58:20;;;;;;;3.03;1.83;;;;;21.70;100970.00;;;;2070845;28;20607;-56
2022/05/14 04:59:20;;;;;;;3.93;1.97;;;;;21.70;100964.00;;;;2070840;28;20228;-56
2022/05/14 05:00:20;;;;;;;3.70;2.00;;;;;21.70;100978.00;;;;2070256;28;20218;-56
2022/05/14 05:01:21;;;;;;;3.17;2.27;;;;;21.70;100975.00;;;;2070817;28;20268;-55
2022/05/14 05:03:40;;;;;;;2.33;1.80;;;;;21.80;100983.00;;;;2070244;28;20248;-54
2022/05/14 05:04:40;;;;;;;3.77;2.10;;;;;21.70;100975.00;;;;2070342;28;20624;-54
2022/05/14 05:05:41;;;;;;;3.43;2.27;;;;;21.80;100981.00;;;;2069589;28;20821;-54
2022/05/14 05:06:41;;;;;;;2.70;2.10;;;;;21.70;100984.00;;;;2070596;28;20930;-54
2022/05/14 05:07:42;;;;;;;2.40;2.10;;;;;21.80;100987.00;;;;2070205;28;20214;-55
2022/05/14 05:08:42;;;;;;;3.47;2.20;;;;;21.80;100987.00;;;;2070597;28;20218;-54